sensor_id;sensor_type;location;lat;lon;timestamp;P1;durP1;ratioP1;P2;durP2;ratioP2
25535;SDS011;13431;51.352;6.412;2022-07-23T00:00:30;7.95;;;6.18;;
25535;SDS011;13431;51.352;6.412;2022-07-23T00:05:32;7.05;;;6.15;;
25535;SDS011;13431;51.352;6.412;2022-07-23T00:08:02;7.20;;;5.80;;
25535;SDS011;13431;51.352;6.412;2022-07-23T00:10:32;8.98;;;6.25;;
25535;SDS011;13431;51.352;6.412;2022-07-23T00:12:59;11.80;;;7.55;;
25535;SDS011;13431;51.352;6.412;2022-07-23T00:15:27;6.63;;;5.93;;
25535;SDS011;13431;51.352;6.412;2022-07-23T00:17:54;8.35;;;6.00;;
25535;SDS011;13431;51.352;6.412;2022-07-23T00:20:21;7.05;;;5.93;;
25535;SDS011;13431;51.352;6.412;2022-07-23T00:22:53;9.65;;;6.50;;
25535;SDS011;13431;51.352;6.412;2022-07-23T00:25:22;7.72;;;6.25;;
25535;SDS011;13431;51.352;6.412;2022-07-23T00:27:56;6.43;;;5.93;;
25535;SDS011;13431;51.352;6.412;2022-07-23T00:30:28;7.10;;;6.50;;
25535;SDS011;13431;51.352;6.412;2022-07-23T00:33:00;8.30;;;6.38;;
25535;SDS011;13431;51.352;6.412;2022-07-23T00:35:30;8.05;;;6.47;;
25535;SDS011;13431;51.352;6.412;2022-07-23T00:38:00;7.20;;;6.50;;
25535;SDS011;13431;51.352;6.412;2022-07-23T00:40:29;7.43;;;6.68;;
25535;SDS011;13431;51.352;6.412;2022-07-23T00:42:56;7.53;;;6.80;;
25535;SDS011;13431;51.352;6.412;2022-07-23T00:45:26;7.50;;;6.80;;
25535;SDS011;13431;51.352;6.412;2022-07-23T00:47:54;7.43;;;6.78;;
25535;SDS011;13431;51.352;6.412;2022-07-23T00:50:21;7.03;;;6.43;;
25535;SDS011;13431;51.352;6.412;2022-07-23T00:52:49;13.40;;;7.95;;
25535;SDS011;13431;51.352;6.412;2022-07-23T00:55:17;8.90;;;7.88;;
25535;SDS011;13431;51.352;6.412;2022-07-23T00:57:44;10.35;;;7.10;;
25535;SDS011;13431;51.352;6.412;2022-07-23T01:00:12;8.30;;;7.38;;
25535;SDS011;13431;51.352;6.412;2022-07-23T01:02:41;8.15;;;7.35;;
25535;SDS011;13431;51.352;6.412;2022-07-23T01:05:09;11.30;;;7.82;;
25535;SDS011;13431;51.352;6.412;2022-07-23T01:07:37;9.07;;;8.18;;
25535;SDS011;13431;51.352;6.412;2022-07-23T01:10:05;8.93;;;8.00;;
25535;SDS011;13431;51.352;6.412;2022-07-23T01:12:53;9.57;;;7.72;;
25535;SDS011;13431;51.352;6.412;2022-07-23T01:15:21;11.90;;;8.57;;
25535;SDS011;13431;51.352;6.412;2022-07-23T01:17:49;12.77;;;7.97;;
25535;SDS011;13431;51.352;6.412;2022-07-23T01:20:17;9.05;;;7.90;;
25535;SDS011;13431;51.352;6.412;2022-07-23T01:22:45;14.18;;;8.13;;
25535;SDS011;13431;51.352;6.412;2022-07-23T01:25:13;10.15;;;7.93;;
25535;SDS011;13431;51.352;6.412;2022-07-23T01:27:50;8.75;;;7.50;;
25535;SDS011;13431;51.352;6.412;2022-07-23T01:30:19;8.45;;;7.45;;
25535;SDS011;13431;51.352;6.412;2022-07-23T01:32:47;9.05;;;7.75;;
25535;SDS011;13431;51.352;6.412;2022-07-23T01:35:15;13.05;;;8.27;;
25535;SDS011;13431;51.352;6.412;2022-07-23T01:37:43;12.82;;;7.60;;
25535;SDS011;13431;51.352;6.412;2022-07-23T01:40:11;12.23;;;8.13;;
25535;SDS011;13431;51.352;6.412;2022-07-23T01:42:38;10.40;;;8.63;;
25535;SDS011;13431;51.352;6.412;2022-07-23T01:45:09;8.70;;;7.93;;
25535;SDS011;13431;51.352;6.412;2022-07-23T01:47:40;8.20;;;7.50;;
25535;SDS011;13431;51.352;6.412;2022-07-23T01:50:08;10.32;;;7.13;;
25535;SDS011;13431;51.352;6.412;2022-07-23T01:52:43;9.23;;;8.40;;
25535;SDS011;13431;51.352;6.412;2022-07-23T01:55:10;11.55;;;8.18;;
25535;SDS011;13431;51.352;6.412;2022-07-23T01:57:46;8.48;;;7.70;;
25535;SDS011;13431;51.352;6.412;2022-07-23T02:00:16;9.30;;;8.02;;
25535;SDS011;13431;51.352;6.412;2022-07-23T02:02:47;10.02;;;9.02;;
25535;SDS011;13431;51.352;6.412;2022-07-23T02:05:14;9.23;;;8.30;;
25535;SDS011;13431;51.352;6.412;2022-07-23T02:07:44;11.38;;;8.60;;
25535;SDS011;13431;51.352;6.412;2022-07-23T02:10:11;9.20;;;8.30;;
25535;SDS011;13431;51.352;6.412;2022-07-23T02:12:39;8.93;;;8.02;;
25535;SDS011;13431;51.352;6.412;2022-07-23T02:15:09;11.45;;;8.32;;
25535;SDS011;13431;51.352;6.412;2022-07-23T02:17:39;9.95;;;8.45;;
25535;SDS011;13431;51.352;6.412;2022-07-23T02:20:08;8.70;;;7.90;;
25535;SDS011;13431;51.352;6.412;2022-07-23T02:22:36;11.88;;;8.52;;
25535;SDS011;13431;51.352;6.412;2022-07-23T02:25:04;10.00;;;8.80;;
25535;SDS011;13431;51.352;6.412;2022-07-23T02:27:33;9.88;;;8.15;;
25535;SDS011;13431;51.352;6.412;2022-07-23T02:30:04;9.15;;;8.13;;
25535;SDS011;13431;51.352;6.412;2022-07-23T02:32:33;10.50;;;8.93;;
25535;SDS011;13431;51.352;6.412;2022-07-23T02:35:02;8.52;;;7.63;;
25535;SDS011;13431;51.352;6.412;2022-07-23T02:37:31;9.40;;;8.50;;
25535;SDS011;13431;51.352;6.412;2022-07-23T02:39:58;11.38;;;8.55;;
25535;SDS011;13431;51.352;6.412;2022-07-23T02:42:26;9.85;;;8.48;;
25535;SDS011;13431;51.352;6.412;2022-07-23T02:44:53;9.60;;;8.70;;
25535;SDS011;13431;51.352;6.412;2022-07-23T02:47:21;10.55;;;9.27;;
25535;SDS011;13431;51.352;6.412;2022-07-23T02:49:48;10.85;;;7.97;;
25535;SDS011;13431;51.352;6.412;2022-07-23T02:52:15;12.77;;;9.30;;
25535;SDS011;13431;51.352;6.412;2022-07-23T02:54:43;10.88;;;8.10;;
25535;SDS011;13431;51.352;6.412;2022-07-23T02:57:14;9.02;;;8.13;;
25535;SDS011;13431;51.352;6.412;2022-07-23T02:59:42;13.00;;;9.25;;
25535;SDS011;13431;51.352;6.412;2022-07-23T03:02:09;11.18;;;8.45;;
25535;SDS011;13431;51.352;6.412;2022-07-23T03:04:37;14.43;;;9.68;;
25535;SDS011;13431;51.352;6.412;2022-07-23T03:07:05;9.32;;;8.52;;
25535;SDS011;13431;51.352;6.412;2022-07-23T03:09:32;9.90;;;8.85;;
25535;SDS011;13431;51.352;6.412;2022-07-23T03:11:59;9.80;;;8.73;;
25535;SDS011;13431;51.352;6.412;2022-07-23T03:14:27;9.43;;;8.43;;
25535;SDS011;13431;51.352;6.412;2022-07-23T03:16:55;10.35;;;9.45;;
25535;SDS011;13431;51.352;6.412;2022-07-23T03:19:22;11.40;;;10.07;;
25535;SDS011;13431;51.352;6.412;2022-07-23T03:21:51;13.15;;;9.63;;
25535;SDS011;13431;51.352;6.412;2022-07-23T03:24:18;11.80;;;8.95;;
25535;SDS011;13431;51.352;6.412;2022-07-23T03:26:46;9.80;;;8.80;;
25535;SDS011;13431;51.352;6.412;2022-07-23T03:29:13;10.65;;;9.63;;
25535;SDS011;13431;51.352;6.412;2022-07-23T03:31:42;10.15;;;8.68;;
25535;SDS011;13431;51.352;6.412;2022-07-23T03:34:09;10.60;;;9.73;;
25535;SDS011;13431;51.352;6.412;2022-07-23T03:36:36;12.35;;;9.73;;
25535;SDS011;13431;51.352;6.412;2022-07-23T03:39:05;11.07;;;9.60;;
25535;SDS011;13431;51.352;6.412;2022-07-23T03:41:38;10.68;;;8.85;;
25535;SDS011;13431;51.352;6.412;2022-07-23T03:44:06;14.82;;;9.60;;
25535;SDS011;13431;51.352;6.412;2022-07-23T03:46:33;10.18;;;9.18;;
25535;SDS011;13431;51.352;6.412;2022-07-23T03:49:00;11.45;;;9.32;;
25535;SDS011;13431;51.352;6.412;2022-07-23T03:51:28;12.82;;;9.00;;
25535;SDS011;13431;51.352;6.412;2022-07-23T03:53:56;11.93;;;9.50;;
25535;SDS011;13431;51.352;6.412;2022-07-23T03:56:23;10.32;;;9.18;;
25535;SDS011;13431;51.352;6.412;2022-07-23T03:58:51;14.20;;;9.95;;
25535;SDS011;13431;51.352;6.412;2022-07-23T04:01:18;12.90;;;10.45;;
25535;SDS011;13431;51.352;6.412;2022-07-23T04:03:46;10.70;;;9.70;;
25535;SDS011;13431;51.352;6.412;2022-07-23T04:06:13;12.88;;;11.57;;
25535;SDS011;13431;51.352;6.412;2022-07-23T04:08:41;11.82;;;10.25;;
25535;SDS011;13431;51.352;6.412;2022-07-23T04:11:09;13.13;;;11.80;;
25535;SDS011;13431;51.352;6.412;2022-07-23T04:13:37;11.70;;;10.50;;
25535;SDS011;13431;51.352;6.412;2022-07-23T04:16:04;12.05;;;9.63;;
25535;SDS011;13431;51.352;6.412;2022-07-23T04:18:33;11.63;;;10.52;;
25535;SDS011;13431;51.352;6.412;2022-07-23T04:21:14;11.75;;;10.50;;
25535;SDS011;13431;51.352;6.412;2022-07-23T04:23:43;13.55;;;10.05;;
25535;SDS011;13431;51.352;6.412;2022-07-23T04:26:12;13.07;;;10.30;;
25535;SDS011;13431;51.352;6.412;2022-07-23T04:28:45;14.35;;;10.25;;
25535;SDS011;13431;51.352;6.412;2022-07-23T04:31:12;11.35;;;10.23;;
25535;SDS011;13431;51.352;6.412;2022-07-23T04:33:39;11.32;;;10.32;;
25535;SDS011;13431;51.352;6.412;2022-07-23T04:36:07;11.68;;;10.32;;
25535;SDS011;13431;51.352;6.412;2022-07-23T04:38:35;11.95;;;9.13;;
25535;SDS011;13431;51.352;6.412;2022-07-23T04:41:03;10.13;;;9.15;;
25535;SDS011;13431;51.352;6.412;2022-07-23T04:43:31;11.43;;;8.98;;
25535;SDS011;13431;51.352;6.412;2022-07-23T04:45:58;9.13;;;8.20;;
25535;SDS011;13431;51.352;6.412;2022-07-23T04:48:27;7.90;;;7.07;;
25535;SDS011;13431;51.352;6.412;2022-07-23T04:51:03;7.43;;;6.70;;
25535;SDS011;13431;51.352;6.412;2022-07-23T04:53:31;7.35;;;6.15;;
25535;SDS011;13431;51.352;6.412;2022-07-23T04:56:00;6.45;;;5.93;;
25535;SDS011;13431;51.352;6.412;2022-07-23T04:58:28;8.70;;;6.65;;
25535;SDS011;13431;51.352;6.412;2022-07-23T05:00:56;7.60;;;5.93;;
25535;SDS011;13431;51.352;6.412;2022-07-23T05:03:25;6.15;;;5.15;;
25535;SDS011;13431;51.352;6.412;2022-07-23T05:05:52;6.03;;;5.10;;
25535;SDS011;13431;51.352;6.412;2022-07-23T05:08:20;6.30;;;5.28;;
25535;SDS011;13431;51.352;6.412;2022-07-23T05:10:53;6.53;;;5.93;;
25535;SDS011;13431;51.352;6.412;2022-07-23T05:13:21;7.78;;;5.85;;
25535;SDS011;13431;51.352;6.412;2022-07-23T05:15:51;7.47;;;5.53;;
25535;SDS011;13431;51.352;6.412;2022-07-23T05:18:19;8.15;;;5.53;;
25535;SDS011;13431;51.352;6.412;2022-07-23T05:20:46;6.28;;;5.68;;
25535;SDS011;13431;51.352;6.412;2022-07-23T05:23:17;5.80;;;5.15;;
25535;SDS011;13431;51.352;6.412;2022-07-23T05:25:45;6.88;;;5.97;;
25535;SDS011;13431;51.352;6.412;2022-07-23T05:28:12;8.88;;;6.43;;
25535;SDS011;13431;51.352;6.412;2022-07-23T05:30:40;6.75;;;6.03;;
25535;SDS011;13431;51.352;6.412;2022-07-23T05:33:11;7.75;;;6.38;;
25535;SDS011;13431;51.352;6.412;2022-07-23T05:35:40;7.18;;;6.47;;
25535;SDS011;13431;51.352;6.412;2022-07-23T05:38:27;6.50;;;5.90;;
25535;SDS011;13431;51.352;6.412;2022-07-23T05:40:58;5.80;;;5.40;;
25535;SDS011;13431;51.352;6.412;2022-07-23T05:43:27;6.63;;;5.85;;
25535;SDS011;13431;51.352;6.412;2022-07-23T05:45:56;6.30;;;5.70;;
25535;SDS011;13431;51.352;6.412;2022-07-23T05:48:24;7.13;;;6.13;;
25535;SDS011;13431;51.352;6.412;2022-07-23T05:51:01;6.05;;;5.05;;
25535;SDS011;13431;51.352;6.412;2022-07-23T05:53:33;5.90;;;5.40;;
25535;SDS011;13431;51.352;6.412;2022-07-23T05:56:19;6.13;;;4.72;;
25535;SDS011;13431;51.352;6.412;2022-07-23T05:58:48;5.57;;;5.07;;
25535;SDS011;13431;51.352;6.412;2022-07-23T06:01:17;5.47;;;4.97;;
25535;SDS011;13431;51.352;6.412;2022-07-23T06:03:52;5.95;;;5.40;;
25535;SDS011;13431;51.352;6.412;2022-07-23T06:06:20;8.65;;;5.43;;
25535;SDS011;13431;51.352;6.412;2022-07-23T06:08:47;6.35;;;4.93;;
25535;SDS011;13431;51.352;6.412;2022-07-23T06:11:15;5.80;;;5.35;;
25535;SDS011;13431;51.352;6.412;2022-07-23T06:13:42;5.95;;;5.03;;
25535;SDS011;13431;51.352;6.412;2022-07-23T06:16:10;6.95;;;4.97;;
25535;SDS011;13431;51.352;6.412;2022-07-23T06:18:38;6.47;;;5.88;;
25535;SDS011;13431;51.352;6.412;2022-07-23T06:21:06;6.32;;;5.72;;
25535;SDS011;13431;51.352;6.412;2022-07-23T06:23:53;5.88;;;5.35;;
25535;SDS011;13431;51.352;6.412;2022-07-23T06:26:20;6.10;;;5.60;;
25535;SDS011;13431;51.352;6.412;2022-07-23T06:28:48;6.22;;;4.43;;
25535;SDS011;13431;51.352;6.412;2022-07-23T06:31:15;6.32;;;5.70;;
25535;SDS011;13431;51.352;6.412;2022-07-23T06:33:43;5.15;;;4.65;;
25535;SDS011;13431;51.352;6.412;2022-07-23T06:36:10;8.57;;;5.30;;
25535;SDS011;13431;51.352;6.412;2022-07-23T06:38:40;5.70;;;5.00;;
25535;SDS011;13431;51.352;6.412;2022-07-23T06:41:07;4.95;;;4.45;;
25535;SDS011;13431;51.352;6.412;2022-07-23T06:43:35;5.82;;;5.22;;
25535;SDS011;13431;51.352;6.412;2022-07-23T06:46:05;5.65;;;5.22;;
25535;SDS011;13431;51.352;6.412;2022-07-23T06:48:33;7.22;;;5.05;;
25535;SDS011;13431;51.352;6.412;2022-07-23T06:51:02;7.05;;;5.18;;
25535;SDS011;13431;51.352;6.412;2022-07-23T06:53:30;5.75;;;5.25;;
25535;SDS011;13431;51.352;6.412;2022-07-23T06:55:58;9.45;;;5.05;;
25535;SDS011;13431;51.352;6.412;2022-07-23T06:58:25;6.30;;;5.20;;
25535;SDS011;13431;51.352;6.412;2022-07-23T07:00:52;12.68;;;5.45;;
25535;SDS011;13431;51.352;6.412;2022-07-23T07:03:20;8.25;;;5.40;;
25535;SDS011;13431;51.352;6.412;2022-07-23T07:05:47;5.18;;;4.70;;
25535;SDS011;13431;51.352;6.412;2022-07-23T07:08:16;5.25;;;4.75;;
25535;SDS011;13431;51.352;6.412;2022-07-23T07:10:43;8.23;;;4.78;;
25535;SDS011;13431;51.352;6.412;2022-07-23T07:13:11;5.85;;;5.32;;
25535;SDS011;13431;51.352;6.412;2022-07-23T07:15:39;5.57;;;5.00;;
25535;SDS011;13431;51.352;6.412;2022-07-23T07:18:06;10.55;;;5.10;;
25535;SDS011;13431;51.352;6.412;2022-07-23T07:20:34;5.40;;;4.68;;
25535;SDS011;13431;51.352;6.412;2022-07-23T07:23:01;5.35;;;4.55;;
25535;SDS011;13431;51.352;6.412;2022-07-23T07:25:29;5.32;;;4.82;;
25535;SDS011;13431;51.352;6.412;2022-07-23T07:27:56;5.63;;;4.30;;
25535;SDS011;13431;51.352;6.412;2022-07-23T07:30:24;4.90;;;4.30;;
25535;SDS011;13431;51.352;6.412;2022-07-23T07:32:59;6.07;;;4.95;;
25535;SDS011;13431;51.352;6.412;2022-07-23T07:35:26;5.40;;;4.80;;
25535;SDS011;13431;51.352;6.412;2022-07-23T07:37:54;5.13;;;4.57;;
25535;SDS011;13431;51.352;6.412;2022-07-23T07:40:21;5.60;;;4.85;;
25535;SDS011;13431;51.352;6.412;2022-07-23T07:42:51;5.05;;;4.32;;
25535;SDS011;13431;51.352;6.412;2022-07-23T07:45:20;4.93;;;4.10;;
25535;SDS011;13431;51.352;6.412;2022-07-23T07:47:48;4.80;;;4.38;;
25535;SDS011;13431;51.352;6.412;2022-07-23T07:50:16;4.30;;;3.90;;
25535;SDS011;13431;51.352;6.412;2022-07-23T07:52:45;5.63;;;3.95;;
25535;SDS011;13431;51.352;6.412;2022-07-23T07:55:12;3.90;;;3.60;;
25535;SDS011;13431;51.352;6.412;2022-07-23T07:57:40;6.80;;;4.15;;
25535;SDS011;13431;51.352;6.412;2022-07-23T08:00:15;9.32;;;4.00;;
25535;SDS011;13431;51.352;6.412;2022-07-23T08:02:50;6.65;;;4.40;;
25535;SDS011;13431;51.352;6.412;2022-07-23T08:05:19;5.68;;;3.75;;
25535;SDS011;13431;51.352;6.412;2022-07-23T08:07:54;5.50;;;3.72;;
25535;SDS011;13431;51.352;6.412;2022-07-23T08:10:23;4.38;;;3.97;;
25535;SDS011;13431;51.352;6.412;2022-07-23T08:12:52;5.78;;;4.53;;
25535;SDS011;13431;51.352;6.412;2022-07-23T08:15:22;4.65;;;4.05;;
25535;SDS011;13431;51.352;6.412;2022-07-23T08:17:50;9.68;;;4.40;;
25535;SDS011;13431;51.352;6.412;2022-07-23T08:20:19;4.50;;;4.10;;
25535;SDS011;13431;51.352;6.412;2022-07-23T08:22:52;5.13;;;3.78;;
25535;SDS011;13431;51.352;6.412;2022-07-23T08:25:23;5.05;;;3.97;;
25535;SDS011;13431;51.352;6.412;2022-07-23T08:27:52;4.25;;;3.83;;
25535;SDS011;13431;51.352;6.412;2022-07-23T08:30:20;4.70;;;4.30;;
25535;SDS011;13431;51.352;6.412;2022-07-23T08:35:27;4.72;;;4.32;;
25535;SDS011;13431;51.352;6.412;2022-07-23T08:37:59;7.05;;;4.70;;
25535;SDS011;13431;51.352;6.412;2022-07-23T08:40:30;6.05;;;4.53;;
25535;SDS011;13431;51.352;6.412;2022-07-23T08:42:59;8.98;;;4.13;;
25535;SDS011;13431;51.352;6.412;2022-07-23T08:45:27;4.70;;;3.75;;
25535;SDS011;13431;51.352;6.412;2022-07-23T08:47:56;4.63;;;3.53;;
25535;SDS011;13431;51.352;6.412;2022-07-23T08:50:31;9.93;;;4.03;;
25535;SDS011;13431;51.352;6.412;2022-07-23T08:53:05;5.40;;;4.13;;
25535;SDS011;13431;51.352;6.412;2022-07-23T08:55:33;3.35;;;3.05;;
25535;SDS011;13431;51.352;6.412;2022-07-23T08:58:01;3.72;;;3.40;;
25535;SDS011;13431;51.352;6.412;2022-07-23T09:00:29;4.35;;;3.40;;
25535;SDS011;13431;51.352;6.412;2022-07-23T09:02:57;3.28;;;3.08;;
25535;SDS011;13431;51.352;6.412;2022-07-23T09:05:24;4.43;;;3.67;;
25535;SDS011;13431;51.352;6.412;2022-07-23T09:08:08;5.97;;;3.97;;
25535;SDS011;13431;51.352;6.412;2022-07-23T09:13:37;3.05;;;2.80;;
25535;SDS011;13431;51.352;6.412;2022-07-23T09:16:13;4.88;;;4.20;;
25535;SDS011;13431;51.352;6.412;2022-07-23T09:18:44;3.80;;;3.50;;
25535;SDS011;13431;51.352;6.412;2022-07-23T09:21:21;3.80;;;3.40;;
25535;SDS011;13431;51.352;6.412;2022-07-23T09:26:25;5.80;;;3.65;;
25535;SDS011;13431;51.352;6.412;2022-07-23T09:31:32;3.90;;;3.30;;
25535;SDS011;13431;51.352;6.412;2022-07-23T09:34:08;3.35;;;3.10;;
25535;SDS011;13431;51.352;6.412;2022-07-23T09:36:38;3.35;;;3.05;;
25535;SDS011;13431;51.352;6.412;2022-07-23T09:39:07;3.88;;;3.20;;
25535;SDS011;13431;51.352;6.412;2022-07-23T09:41:36;2.47;;;2.28;;
25535;SDS011;13431;51.352;6.412;2022-07-23T09:44:17;6.63;;;2.70;;
25535;SDS011;13431;51.352;6.412;2022-07-23T09:46:57;3.38;;;2.88;;
25535;SDS011;13431;51.352;6.412;2022-07-23T09:49:26;4.60;;;3.30;;
25535;SDS011;13431;51.352;6.412;2022-07-23T09:51:55;4.05;;;3.00;;
25535;SDS011;13431;51.352;6.412;2022-07-23T09:57:06;2.78;;;2.50;;
25535;SDS011;13431;51.352;6.412;2022-07-23T09:59:44;2.60;;;2.40;;
25535;SDS011;13431;51.352;6.412;2022-07-23T10:02:14;3.70;;;3.05;;
25535;SDS011;13431;51.352;6.412;2022-07-23T10:05:01;2.78;;;2.58;;
25535;SDS011;13431;51.352;6.412;2022-07-23T10:07:50;4.07;;;2.80;;
25535;SDS011;13431;51.352;6.412;2022-07-23T10:10:40;2.40;;;2.20;;
25535;SDS011;13431;51.352;6.412;2022-07-23T10:13:27;2.83;;;2.20;;
25535;SDS011;13431;51.352;6.412;2022-07-23T10:15:59;2.67;;;2.47;;
25535;SDS011;13431;51.352;6.412;2022-07-23T10:18:26;2.15;;;2.05;;
25535;SDS011;13431;51.352;6.412;2022-07-23T10:20:54;2.53;;;2.13;;
25535;SDS011;13431;51.352;6.412;2022-07-23T10:23:24;3.00;;;2.20;;
25535;SDS011;13431;51.352;6.412;2022-07-23T10:26:26;3.17;;;2.88;;
25535;SDS011;13431;51.352;6.412;2022-07-23T10:29:42;3.38;;;2.70;;
25535;SDS011;13431;51.352;6.412;2022-07-23T10:38:30;2.90;;;2.67;;
25535;SDS011;13431;51.352;6.412;2022-07-23T10:41:01;2.50;;;2.30;;
25535;SDS011;13431;51.352;6.412;2022-07-23T10:43:30;2.40;;;2.20;;
25535;SDS011;13431;51.352;6.412;2022-07-23T10:46:41;2.45;;;1.85;;
25535;SDS011;13431;51.352;6.412;2022-07-23T10:54:42;2.95;;;2.28;;
25535;SDS011;13431;51.352;6.412;2022-07-23T10:57:25;3.45;;;2.25;;
25535;SDS011;13431;51.352;6.412;2022-07-23T11:02:30;4.32;;;2.65;;
25535;SDS011;13431;51.352;6.412;2022-07-23T11:04:59;5.22;;;2.50;;
25535;SDS011;13431;51.352;6.412;2022-07-23T11:07:28;3.58;;;2.38;;
25535;SDS011;13431;51.352;6.412;2022-07-23T11:09:55;3.05;;;2.05;;
25535;SDS011;13431;51.352;6.412;2022-07-23T11:15:00;2.78;;;2.35;;
25535;SDS011;13431;51.352;6.412;2022-07-23T11:17:31;2.70;;;2.50;;
25535;SDS011;13431;51.352;6.412;2022-07-23T11:22:47;2.10;;;1.85;;
25535;SDS011;13431;51.352;6.412;2022-07-23T11:27:51;4.93;;;2.42;;
25535;SDS011;13431;51.352;6.412;2022-07-23T11:35:35;2.05;;;1.85;;
25535;SDS011;13431;51.352;6.412;2022-07-23T11:38:13;3.38;;;2.58;;
25535;SDS011;13431;51.352;6.412;2022-07-23T11:40:42;2.72;;;1.92;;
25535;SDS011;13431;51.352;6.412;2022-07-23T11:43:12;4.15;;;2.08;;
25535;SDS011;13431;51.352;6.412;2022-07-23T11:45:41;4.32;;;2.97;;
25535;SDS011;13431;51.352;6.412;2022-07-23T11:48:19;2.95;;;1.80;;
25535;SDS011;13431;51.352;6.412;2022-07-23T11:50:51;3.22;;;2.75;;
25535;SDS011;13431;51.352;6.412;2022-07-23T11:53:23;3.03;;;2.28;;
25535;SDS011;13431;51.352;6.412;2022-07-23T11:55:52;4.13;;;2.30;;
25535;SDS011;13431;51.352;6.412;2022-07-23T11:58:21;1.88;;;1.60;;
25535;SDS011;13431;51.352;6.412;2022-07-23T12:00:48;2.45;;;1.98;;
25535;SDS011;13431;51.352;6.412;2022-07-23T12:03:17;2.85;;;1.95;;
25535;SDS011;13431;51.352;6.412;2022-07-23T12:05:46;4.97;;;2.53;;
25535;SDS011;13431;51.352;6.412;2022-07-23T12:08:17;3.38;;;2.30;;
25535;SDS011;13431;51.352;6.412;2022-07-23T12:10:44;3.55;;;2.92;;
25535;SDS011;13431;51.352;6.412;2022-07-23T12:13:13;4.18;;;2.17;;
25535;SDS011;13431;51.352;6.412;2022-07-23T12:15:50;3.75;;;2.60;;
25535;SDS011;13431;51.352;6.412;2022-07-23T12:18:20;3.92;;;1.73;;
25535;SDS011;13431;51.352;6.412;2022-07-23T12:20:50;3.65;;;1.95;;
25535;SDS011;13431;51.352;6.412;2022-07-23T12:23:20;2.72;;;2.40;;
25535;SDS011;13431;51.352;6.412;2022-07-23T12:25:49;2.70;;;2.50;;
25535;SDS011;13431;51.352;6.412;2022-07-23T12:28:27;7.07;;;2.92;;
25535;SDS011;13431;51.352;6.412;2022-07-23T12:30:57;4.63;;;2.63;;
25535;SDS011;13431;51.352;6.412;2022-07-23T12:33:26;4.35;;;2.22;;
25535;SDS011;13431;51.352;6.412;2022-07-23T12:35:59;3.42;;;2.53;;
25535;SDS011;13431;51.352;6.412;2022-07-23T12:38:35;3.28;;;2.45;;
25535;SDS011;13431;51.352;6.412;2022-07-23T12:41:07;2.88;;;2.60;;
25535;SDS011;13431;51.352;6.412;2022-07-23T12:43:39;3.92;;;2.35;;
25535;SDS011;13431;51.352;6.412;2022-07-23T12:51:17;2.30;;;1.90;;
25535;SDS011;13431;51.352;6.412;2022-07-23T12:56:18;2.72;;;2.13;;
25535;SDS011;13431;51.352;6.412;2022-07-23T13:01:23;9.77;;;2.53;;
25535;SDS011;13431;51.352;6.412;2022-07-23T13:06:49;3.05;;;2.50;;
25535;SDS011;13431;51.352;6.412;2022-07-23T13:09:19;3.35;;;2.08;;
25535;SDS011;13431;51.352;6.412;2022-07-23T13:11:52;2.10;;;1.90;;
25535;SDS011;13431;51.352;6.412;2022-07-23T13:14:23;2.80;;;2.30;;
25535;SDS011;13431;51.352;6.412;2022-07-23T13:16:53;1.80;;;1.70;;
25535;SDS011;13431;51.352;6.412;2022-07-23T13:19:22;3.65;;;2.03;;
25535;SDS011;13431;51.352;6.412;2022-07-23T13:21:53;8.93;;;2.05;;
25535;SDS011;13431;51.352;6.412;2022-07-23T13:24:21;2.40;;;2.10;;
25535;SDS011;13431;51.352;6.412;2022-07-23T13:26:48;2.75;;;2.33;;
25535;SDS011;13431;51.352;6.412;2022-07-23T13:29:18;2.42;;;1.77;;
25535;SDS011;13431;51.352;6.412;2022-07-23T13:31:46;2.88;;;2.10;;
25535;SDS011;13431;51.352;6.412;2022-07-23T13:34:17;2.78;;;2.08;;
25535;SDS011;13431;51.352;6.412;2022-07-23T13:36:46;4.22;;;2.28;;
25535;SDS011;13431;51.352;6.412;2022-07-23T13:39:13;3.35;;;1.90;;
25535;SDS011;13431;51.352;6.412;2022-07-23T13:41:40;2.35;;;2.00;;
25535;SDS011;13431;51.352;6.412;2022-07-23T13:44:16;3.17;;;1.90;;
25535;SDS011;13431;51.352;6.412;2022-07-23T13:46:48;2.53;;;2.03;;
25535;SDS011;13431;51.352;6.412;2022-07-23T13:49:16;2.80;;;2.25;;
25535;SDS011;13431;51.352;6.412;2022-07-23T13:51:45;2.22;;;2.03;;
25535;SDS011;13431;51.352;6.412;2022-07-23T13:54:12;2.30;;;1.90;;
25535;SDS011;13431;51.352;6.412;2022-07-23T13:56:40;2.15;;;1.90;;
25535;SDS011;13431;51.352;6.412;2022-07-23T13:59:07;2.28;;;2.08;;
25535;SDS011;13431;51.352;6.412;2022-07-23T14:01:35;4.50;;;2.00;;
25535;SDS011;13431;51.352;6.412;2022-07-23T14:04:23;5.32;;;2.22;;
25535;SDS011;13431;51.352;6.412;2022-07-23T14:06:50;2.40;;;2.20;;
25535;SDS011;13431;51.352;6.412;2022-07-23T14:09:21;1.95;;;1.85;;
25535;SDS011;13431;51.352;6.412;2022-07-23T14:11:51;3.28;;;2.33;;
25535;SDS011;13431;51.352;6.412;2022-07-23T14:14:19;3.40;;;1.98;;
25535;SDS011;13431;51.352;6.412;2022-07-23T14:16:46;2.63;;;2.08;;
25535;SDS011;13431;51.352;6.412;2022-07-23T14:19:14;4.13;;;2.10;;
25535;SDS011;13431;51.352;6.412;2022-07-23T14:21:41;3.80;;;2.10;;
25535;SDS011;13431;51.352;6.412;2022-07-23T14:24:10;4.07;;;2.08;;
25535;SDS011;13431;51.352;6.412;2022-07-23T14:26:37;3.03;;;2.30;;
25535;SDS011;13431;51.352;6.412;2022-07-23T14:29:05;2.50;;;2.30;;
25535;SDS011;13431;51.352;6.412;2022-07-23T14:31:34;2.55;;;2.35;;
25535;SDS011;13431;51.352;6.412;2022-07-23T14:34:02;2.47;;;2.10;;
25535;SDS011;13431;51.352;6.412;2022-07-23T14:36:30;2.30;;;2.10;;
25535;SDS011;13431;51.352;6.412;2022-07-23T14:38:57;4.35;;;2.33;;
25535;SDS011;13431;51.352;6.412;2022-07-23T14:41:25;4.90;;;2.33;;
25535;SDS011;13431;51.352;6.412;2022-07-23T14:43:54;2.50;;;2.30;;
25535;SDS011;13431;51.352;6.412;2022-07-23T14:46:22;2.65;;;2.28;;
25535;SDS011;13431;51.352;6.412;2022-07-23T14:48:50;2.22;;;1.95;;
25535;SDS011;13431;51.352;6.412;2022-07-23T14:51:17;3.53;;;2.38;;
25535;SDS011;13431;51.352;6.412;2022-07-23T14:53:45;2.47;;;2.28;;
25535;SDS011;13431;51.352;6.412;2022-07-23T14:56:13;2.30;;;2.10;;
25535;SDS011;13431;51.352;6.412;2022-07-23T14:58:41;3.00;;;2.70;;
25535;SDS011;13431;51.352;6.412;2022-07-23T15:01:09;3.08;;;2.72;;
25535;SDS011;13431;51.352;6.412;2022-07-23T15:03:37;2.40;;;2.20;;
25535;SDS011;13431;51.352;6.412;2022-07-23T15:06:08;2.35;;;2.13;;
25535;SDS011;13431;51.352;6.412;2022-07-23T15:08:36;3.03;;;2.00;;
25535;SDS011;13431;51.352;6.412;2022-07-23T15:11:03;2.42;;;2.15;;
25535;SDS011;13431;51.352;6.412;2022-07-23T15:13:33;5.13;;;2.55;;
25535;SDS011;13431;51.352;6.412;2022-07-23T15:16:01;3.15;;;2.25;;
25535;SDS011;13431;51.352;6.412;2022-07-23T15:18:32;3.40;;;2.28;;
25535;SDS011;13431;51.352;6.412;2022-07-23T15:21:01;2.60;;;2.33;;
25535;SDS011;13431;51.352;6.412;2022-07-23T15:23:30;2.40;;;2.20;;
25535;SDS011;13431;51.352;6.412;2022-07-23T15:25:58;15.70;;;3.25;;
25535;SDS011;13431;51.352;6.412;2022-07-23T15:28:26;2.28;;;2.05;;
25535;SDS011;13431;51.352;6.412;2022-07-23T15:30:54;2.30;;;1.98;;
25535;SDS011;13431;51.352;6.412;2022-07-23T15:33:21;3.38;;;2.53;;
25535;SDS011;13431;51.352;6.412;2022-07-23T15:35:51;3.80;;;2.50;;
25535;SDS011;13431;51.352;6.412;2022-07-23T15:38:22;3.22;;;2.47;;
25535;SDS011;13431;51.352;6.412;2022-07-23T15:40:52;3.45;;;2.15;;
25535;SDS011;13431;51.352;6.412;2022-07-23T15:43:24;3.40;;;2.30;;
25535;SDS011;13431;51.352;6.412;2022-07-23T15:45:52;6.90;;;2.30;;
25535;SDS011;13431;51.352;6.412;2022-07-23T15:48:20;2.45;;;2.25;;
25535;SDS011;13431;51.352;6.412;2022-07-23T15:50:48;3.60;;;2.25;;
25535;SDS011;13431;51.352;6.412;2022-07-23T15:53:16;3.85;;;2.58;;
25535;SDS011;13431;51.352;6.412;2022-07-23T15:55:57;2.90;;;2.67;;
25535;SDS011;13431;51.352;6.412;2022-07-23T15:58:29;3.28;;;2.72;;